Olympia Heights, Florida
Current Conditions -  °F | °C
As of 12:53 PM on Thursday 23 Oct 2014 (Local Time) from KMIA Reporting Station
Broken Clouds Broken Clouds  
Wind Chill: 81°   Ceiling: 1800
Heat Index: 85°   Visibility: 10mi
Dew Point: 72°   Wind: 8mph
Humidity: 74%   Direction: 80°E
Pressure: 29.91"   Gusts: NA
Location:  25.73°N, 80.35°W
Report Text: KMIA 231653Z 08007KT 10SM BKN018 BKN130 27/22 A2991 RMK AO2 SLP130 T02720222
Loading
Personal Weather Stations






























Interactive Weather Map
Tropical Storm Tracking
New forecast layout! Learn more

10-Day Weather Forecast

Advertisements
Track Severe Weather on mobile